sensor_id;sensor_type;location;lat;lon;timestamp;pressure;altitude;pressure_sealevel;temperature;humidity
51287;BME280;37364;46.974;18.916;2023-03-20T00:00:18;153053.88;;;10.74;97.40
51287;BME280;37364;46.974;18.916;2023-03-20T00:02:50;153057.78;;;10.75;97.69
51287;BME280;37364;46.974;18.916;2023-03-20T00:05:22;153037.06;;;10.67;98.49
51287;BME280;37364;46.974;18.916;2023-03-20T00:07:57;153033.16;;;10.65;98.40
51287;BME280;37364;46.974;18.916;2023-03-20T00:10:31;153033.16;;;10.65;98.72
51287;BME280;37364;46.974;18.916;2023-03-20T00:13:03;153038.34;;;10.67;98.37
51287;BME280;37364;46.974;18.916;2023-03-20T00:15:35;153042.25;;;10.69;98.95
51287;BME280;37364;46.974;18.916;2023-03-20T00:18:13;153042.25;;;10.69;98.89
51287;BME280;37364;46.974;18.916;2023-03-20T00:20:46;153079.81;;;10.84;98.05
51287;BME280;37364;46.974;18.916;2023-03-20T00:23:19;153075.91;;;10.82;97.89
51287;BME280;37364;46.974;18.916;2023-03-20T00:25:49;153085.00;;;10.86;97.83
51287;BME280;37364;46.974;18.916;2023-03-20T00:28:36;153077.19;;;10.83;97.83
51287;BME280;37364;46.974;18.916;2023-03-20T00:31:22;153052.59;;;10.73;98.55
51287;BME280;37364;46.974;18.916;2023-03-20T00:33:57;153061.66;;;10.77;98.86
51287;BME280;37364;46.974;18.916;2023-03-20T00:36:27;153068.13;;;10.79;98.87
51287;BME280;37364;46.974;18.916;2023-03-20T00:39:01;153069.41;;;10.80;98.58
51287;BME280;37364;46.974;18.916;2023-03-20T00:41:33;153074.59;;;10.82;99.41
51287;BME280;37364;46.974;18.916;2023-03-20T00:44:20;153074.59;;;10.82;99.50
51287;BME280;37364;46.974;18.916;2023-03-20T00:46:53;153070.75;;;10.80;99.81
51287;BME280;37364;46.974;18.916;2023-03-20T00:49:26;153053.88;;;10.74;100.00
51287;BME280;37364;46.974;18.916;2023-03-20T00:51:57;153028.00;;;10.63;100.00
51287;BME280;37364;46.974;18.916;2023-03-20T00:54:30;153017.63;;;10.59;100.00
51287;BME280;37364;46.974;18.916;2023-03-20T00:57:03;152991.75;;;10.49;100.00
51287;BME280;37364;46.974;18.916;2023-03-20T00:59:37;152982.69;;;10.45;100.00
51287;BME280;37364;46.974;18.916;2023-03-20T01:02:08;152958.09;;;10.36;100.00
51287;BME280;37364;46.974;18.916;2023-03-20T01:04:41;152951.63;;;10.33;100.00
51287;BME280;37364;46.974;18.916;2023-03-20T01:07:13;152921.81;;;10.21;100.00
51287;BME280;37364;46.974;18.916;2023-03-20T01:09:47;152921.81;;;10.21;100.00
51287;BME280;37364;46.974;18.916;2023-03-20T01:12:18;152914.03;;;10.18;100.00
51287;BME280;37364;46.974;18.916;2023-03-20T01:14:51;152910.13;;;10.17;100.00
51287;BME280;37364;46.974;18.916;2023-03-20T01:17:23;152912.75;;;10.18;100.00
51287;BME280;37364;46.974;18.916;2023-03-20T01:19:53;152923.09;;;10.22;100.00
51287;BME280;37364;46.974;18.916;2023-03-20T01:22:23;152939.91;;;10.28;100.00
51287;BME280;37364;46.974;18.916;2023-03-20T01:24:56;152947.75;;;10.32;100.00
51287;BME280;37364;46.974;18.916;2023-03-20T01:27:27;152947.75;;;10.32;100.00
51287;BME280;37364;46.974;18.916;2023-03-20T01:29:58;152949.03;;;10.32;100.00
51287;BME280;37364;46.974;18.916;2023-03-20T01:32:28;152939.91;;;10.28;100.00
51287;BME280;37364;46.974;18.916;2023-03-20T01:34:58;152958.09;;;10.36;100.00
51287;BME280;37364;46.974;18.916;2023-03-20T01:37:28;152973.63;;;10.42;100.00
51287;BME280;37364;46.974;18.916;2023-03-20T01:42:55;152973.63;;;10.42;100.00
51287;BME280;37364;46.974;18.916;2023-03-20T01:45:30;152973.63;;;10.42;100.00
51287;BME280;37364;46.974;18.916;2023-03-20T01:48:11;152971.06;;;10.41;100.00
51287;BME280;37364;46.974;18.916;2023-03-20T01:50:43;152964.53;;;10.38;100.00
51287;BME280;37364;46.974;18.916;2023-03-20T01:53:17;152963.25;;;10.38;100.00
51287;BME280;37364;46.974;18.916;2023-03-20T01:55:58;152973.63;;;10.42;100.00
51287;BME280;37364;46.974;18.916;2023-03-20T01:58:41;152991.75;;;10.49;100.00
51287;BME280;37364;46.974;18.916;2023-03-20T02:01:13;153000.81;;;10.53;100.00
51287;BME280;37364;46.974;18.916;2023-03-20T02:03:48;153007.28;;;10.55;100.00
51287;BME280;37364;46.974;18.916;2023-03-20T02:06:34;153008.56;;;10.56;100.00
51287;BME280;37364;46.974;18.916;2023-03-20T02:09:34;153002.09;;;10.53;100.00
51287;BME280;37364;46.974;18.916;2023-03-20T02:12:11;152980.06;;;10.44;100.00
51287;BME280;37364;46.974;18.916;2023-03-20T02:14:42;152978.78;;;10.44;100.00
51287;BME280;37364;46.974;18.916;2023-03-20T02:17:43;152978.78;;;10.44;100.00
51287;BME280;37364;46.974;18.916;2023-03-20T02:20:20;152959.38;;;10.36;100.00
51287;BME280;37364;46.974;18.916;2023-03-20T02:23:34;152949.03;;;10.32;100.00
51287;BME280;37364;46.974;18.916;2023-03-20T02:26:22;152917.91;;;10.20;100.00
51287;BME280;37364;46.974;18.916;2023-03-20T02:35:19;152863.56;;;9.98;100.00
51287;BME280;37364;46.974;18.916;2023-03-20T02:41:11;152833.78;;;9.86;100.00
51287;BME280;37364;46.974;18.916;2023-03-20T02:43:51;152810.50;;;9.77;100.00
51287;BME280;37364;46.974;18.916;2023-03-20T02:46:30;152787.19;;;9.68;100.00
51287;BME280;37364;46.974;18.916;2023-03-20T02:49:16;152765.22;;;9.59;100.00
51287;BME280;37364;46.974;18.916;2023-03-20T02:51:52;152729.00;;;9.45;100.00
51287;BME280;37364;46.974;18.916;2023-03-20T02:54:32;152725.09;;;9.43;100.00
51287;BME280;37364;46.974;18.916;2023-03-20T02:57:16;152695.34;;;9.32;100.00
51287;BME280;37364;46.974;18.916;2023-03-20T02:59:54;152672.06;;;9.22;100.00
51287;BME280;37364;46.974;18.916;2023-03-20T03:02:31;152674.66;;;9.23;100.00
51287;BME280;37364;46.974;18.916;2023-03-20T03:05:06;152643.59;;;9.11;100.00
51287;BME280;37364;46.974;18.916;2023-03-20T03:07:40;152626.78;;;9.04;100.00
51287;BME280;37364;46.974;18.916;2023-03-20T03:10:17;152599.63;;;8.94;100.00
51287;BME280;37364;46.974;18.916;2023-03-20T03:12:54;152577.66;;;8.85;100.00
51287;BME280;37364;46.974;18.916;2023-03-20T03:15:28;152553.09;;;8.75;100.00
51287;BME280;37364;46.974;18.916;2023-03-20T03:18:04;152550.47;;;8.74;100.00
51287;BME280;37364;46.974;18.916;2023-03-20T03:20:36;152534.97;;;8.68;100.00
51287;BME280;37364;46.974;18.916;2023-03-20T03:23:17;152532.41;;;8.67;100.00
51287;BME280;37364;46.974;18.916;2023-03-20T03:25:47;152502.66;;;8.55;100.00
51287;BME280;37364;46.974;18.916;2023-03-20T03:28:25;152466.38;;;8.41;100.00
51287;BME280;37364;46.974;18.916;2023-03-20T03:30:58;152450.88;;;8.35;100.00
51287;BME280;37364;46.974;18.916;2023-03-20T03:33:30;152452.22;;;8.35;100.00
51287;BME280;37364;46.974;18.916;2023-03-20T03:36:09;152435.38;;;8.28;100.00
51287;BME280;37364;46.974;18.916;2023-03-20T03:38:46;152410.81;;;8.19;100.00
51287;BME280;37364;46.974;18.916;2023-03-20T03:41:24;152406.94;;;8.17;100.00
51287;BME280;37364;46.974;18.916;2023-03-20T03:44:06;152375.94;;;8.05;100.00
51287;BME280;37364;46.974;18.916;2023-03-20T03:46:42;152346.22;;;7.93;100.00
51287;BME280;37364;46.974;18.916;2023-03-20T03:49:20;152334.59;;;7.88;100.00
51287;BME280;37364;46.974;18.916;2023-03-20T03:51:54;152322.94;;;7.84;100.00
51287;BME280;37364;46.974;18.916;2023-03-20T03:54:28;152310.03;;;7.79;100.00
51287;BME280;37364;46.974;18.916;2023-03-20T03:57:35;152298.38;;;7.74;100.00
51287;BME280;37364;46.974;18.916;2023-03-20T04:00:14;152293.22;;;7.72;100.00
51287;BME280;37364;46.974;18.916;2023-03-20T04:02:49;152290.66;;;7.71;100.00
51287;BME280;37364;46.974;18.916;2023-03-20T04:05:22;152290.66;;;7.71;100.00
51287;BME280;37364;46.974;18.916;2023-03-20T04:07:55;152301.00;;;7.75;100.00
51287;BME280;37364;46.974;18.916;2023-03-20T04:10:25;152285.50;;;7.69;100.00
51287;BME280;37364;46.974;18.916;2023-03-20T04:12:55;152260.94;;;7.59;100.00
51287;BME280;37364;46.974;18.916;2023-03-20T04:15:28;152236.41;;;7.49;100.00
51287;BME280;37364;46.974;18.916;2023-03-20T04:17:59;152231.22;;;7.47;100.00
51287;BME280;37364;46.974;18.916;2023-03-20T04:20:29;152226.06;;;7.45;100.00
51287;BME280;37364;46.974;18.916;2023-03-20T04:23:00;152226.06;;;7.45;100.00
51287;BME280;37364;46.974;18.916;2023-03-20T04:25:31;152204.06;;;7.37;100.00
51287;BME280;37364;46.974;18.916;2023-03-20T04:28:02;152209.25;;;7.39;100.00
51287;BME280;37364;46.974;18.916;2023-03-20T04:30:55;152204.06;;;7.37;100.00
51287;BME280;37364;46.974;18.916;2023-03-20T04:33:49;152207.97;;;7.38;100.00
51287;BME280;37364;46.974;18.916;2023-03-20T04:36:34;152198.91;;;7.35;100.00
51287;BME280;37364;46.974;18.916;2023-03-20T04:39:06;152180.88;;;7.27;100.00
51287;BME280;37364;46.974;18.916;2023-03-20T04:41:37;152170.53;;;7.23;100.00
51287;BME280;37364;46.974;18.916;2023-03-20T04:44:08;152162.75;;;7.20;100.00
51287;BME280;37364;46.974;18.916;2023-03-20T04:46:42;152167.94;;;7.22;100.00
51287;BME280;37364;46.974;18.916;2023-03-20T04:49:15;152143.38;;;7.12;100.00
51287;BME280;37364;46.974;18.916;2023-03-20T04:51:47;152114.97;;;7.01;100.00
51287;BME280;37364;46.974;18.916;2023-03-20T04:54:27;152114.97;;;7.01;100.00
51287;BME280;37364;46.974;18.916;2023-03-20T04:56:57;152102.09;;;6.96;100.00
51287;BME280;37364;46.974;18.916;2023-03-20T04:59:27;152096.91;;;6.94;100.00
51287;BME280;37364;46.974;18.916;2023-03-20T05:02:00;152084.00;;;6.89;100.00
51287;BME280;37364;46.974;18.916;2023-03-20T05:04:31;152068.50;;;6.83;100.00
51287;BME280;37364;46.974;18.916;2023-03-20T05:07:01;152055.56;;;6.78;100.00
51287;BME280;37364;46.974;18.916;2023-03-20T05:09:40;152049.13;;;6.75;100.00
51287;BME280;37364;46.974;18.916;2023-03-20T05:12:13;152037.53;;;6.70;100.00
51287;BME280;37364;46.974;18.916;2023-03-20T05:15:01;152027.16;;;6.66;100.00
51287;BME280;37364;46.974;18.916;2023-03-20T05:18:09;152007.84;;;6.59;100.00
51287;BME280;37364;46.974;18.916;2023-03-20T05:20:58;152016.84;;;6.62;100.00
51287;BME280;37364;46.974;18.916;2023-03-20T05:23:42;152005.22;;;6.58;100.00
51287;BME280;37364;46.974;18.916;2023-03-20T05:26:31;151989.75;;;6.51;100.00
51287;BME280;37364;46.974;18.916;2023-03-20T05:29:04;151979.41;;;6.47;100.00
51287;BME280;37364;46.974;18.916;2023-03-20T05:31:48;151984.59;;;6.49;100.00
51287;BME280;37364;46.974;18.916;2023-03-20T05:34:39;151980.69;;;6.48;100.00
51287;BME280;37364;46.974;18.916;2023-03-20T05:37:15;151975.53;;;6.46;100.00
51287;BME280;37364;46.974;18.916;2023-03-20T05:40:12;151975.53;;;6.46;100.00
51287;BME280;37364;46.974;18.916;2023-03-20T05:43:00;151997.47;;;6.54;100.00
51287;BME280;37364;46.974;18.916;2023-03-20T05:45:57;151978.16;;;6.47;100.00
51287;BME280;37364;46.974;18.916;2023-03-20T05:48:30;151987.13;;;6.50;100.00
51287;BME280;37364;46.974;18.916;2023-03-20T05:51:16;152001.34;;;6.56;100.00
51287;BME280;37364;46.974;18.916;2023-03-20T05:54:02;152002.69;;;6.57;100.00
51287;BME280;37364;46.974;18.916;2023-03-20T05:56:56;152003.94;;;6.57;100.00
51287;BME280;37364;46.974;18.916;2023-03-20T05:59:43;152015.56;;;6.62;100.00
51287;BME280;37364;46.974;18.916;2023-03-20T06:02:25;152032.38;;;6.68;100.00
51287;BME280;37364;46.974;18.916;2023-03-20T06:05:06;152049.13;;;6.75;100.00
51287;BME280;37364;46.974;18.916;2023-03-20T06:07:49;152065.91;;;6.82;100.00
51287;BME280;37364;46.974;18.916;2023-03-20T06:10:19;152063.34;;;6.81;100.00
51287;BME280;37364;46.974;18.916;2023-03-20T06:12:50;152077.53;;;6.86;100.00
51287;BME280;37364;46.974;18.916;2023-03-20T06:15:24;152095.59;;;6.93;100.00
51287;BME280;37364;46.974;18.916;2023-03-20T06:18:02;152108.53;;;6.99;100.00
51287;BME280;37364;46.974;18.916;2023-03-20T06:20:33;152130.47;;;7.07;100.00
51287;BME280;37364;46.974;18.916;2023-03-20T06:23:06;152156.31;;;7.18;100.00
51287;BME280;37364;46.974;18.916;2023-03-20T06:25:37;152191.19;;;7.31;100.00
51287;BME280;37364;46.974;18.916;2023-03-20T06:28:07;152223.47;;;7.44;100.00
51287;BME280;37364;46.974;18.916;2023-03-20T06:30:38;152257.06;;;7.58;100.00
51287;BME280;37364;46.974;18.916;2023-03-20T06:33:14;152295.81;;;7.73;100.00
51287;BME280;37364;46.974;18.916;2023-03-20T06:35:56;152307.44;;;7.78;100.00
51287;BME280;37364;46.974;18.916;2023-03-20T06:38:32;152329.44;;;7.86;100.00
51287;BME280;37364;46.974;18.916;2023-03-20T06:41:08;152374.66;;;8.04;100.00
51287;BME280;37364;46.974;18.916;2023-03-20T06:43:54;152399.22;;;8.14;100.00
51287;BME280;37364;46.974;18.916;2023-03-20T06:46:28;152421.16;;;8.23;100.00
51287;BME280;37364;46.974;18.916;2023-03-20T06:48:58;152450.88;;;8.35;100.00
51287;BME280;37364;46.974;18.916;2023-03-20T06:51:28;152474.22;;;8.44;100.00
51287;BME280;37364;46.974;18.916;2023-03-20T06:54:02;152487.16;;;8.49;100.00
51287;BME280;37364;46.974;18.916;2023-03-20T06:56:32;152506.56;;;8.57;100.00
51287;BME280;37364;46.974;18.916;2023-03-20T06:59:02;152520.75;;;8.62;100.00
51287;BME280;37364;46.974;18.916;2023-03-20T07:01:32;152525.91;;;8.64;100.00
51287;BME280;37364;46.974;18.916;2023-03-20T07:04:06;152555.69;;;8.76;100.00
51287;BME280;37364;46.974;18.916;2023-03-20T07:06:44;152577.66;;;8.85;100.00
51287;BME280;37364;46.974;18.916;2023-03-20T07:09:17;152572.47;;;8.83;100.00
51287;BME280;37364;46.974;18.916;2023-03-20T07:11:48;152612.56;;;8.99;100.00
51287;BME280;37364;46.974;18.916;2023-03-20T07:14:19;152622.91;;;9.03;100.00
51287;BME280;37364;46.974;18.916;2023-03-20T07:16:54;152666.88;;;9.20;100.00
51287;BME280;37364;46.974;18.916;2023-03-20T07:19:25;152692.75;;;9.30;100.00
51287;BME280;37364;46.974;18.916;2023-03-20T07:21:59;152681.13;;;9.26;99.63
51287;BME280;37364;46.974;18.916;2023-03-20T07:24:39;152709.59;;;9.37;99.21
51287;BME280;37364;46.974;18.916;2023-03-20T07:27:13;152731.56;;;9.46;95.32
51287;BME280;37364;46.974;18.916;2023-03-20T07:29:44;152770.38;;;9.61;96.63
51287;BME280;37364;46.974;18.916;2023-03-20T07:32:17;152824.72;;;9.83;91.04
51287;BME280;37364;46.974;18.916;2023-03-20T07:34:49;152898.50;;;10.12;89.92
51287;BME280;37364;46.974;18.916;2023-03-20T07:37:19;152923.09;;;10.22;87.84
51287;BME280;37364;46.974;18.916;2023-03-20T07:40:04;152912.75;;;10.18;86.15
51287;BME280;37364;46.974;18.916;2023-03-20T07:42:44;152960.66;;;10.37;86.98
51287;BME280;37364;46.974;18.916;2023-03-20T07:45:34;152960.66;;;10.37;85.89
51287;BME280;37364;46.974;18.916;2023-03-20T07:48:05;152946.47;;;10.31;85.81
51287;BME280;37364;46.974;18.916;2023-03-20T07:50:35;153052.59;;;10.73;84.67
51287;BME280;37364;46.974;18.916;2023-03-20T07:53:05;153103.09;;;10.93;83.62
51287;BME280;37364;46.974;18.916;2023-03-20T07:55:39;153164.00;;;11.17;82.46
51287;BME280;37364;46.974;18.916;2023-03-20T07:58:09;153110.88;;;10.96;82.66
51287;BME280;37364;46.974;18.916;2023-03-20T08:00:39;153188.56;;;11.27;81.24
51287;BME280;37364;46.974;18.916;2023-03-20T08:03:10;153198.97;;;11.31;81.55
51287;BME280;37364;46.974;18.916;2023-03-20T08:05:40;153152.31;;;11.13;83.57
51287;BME280;37364;46.974;18.916;2023-03-20T08:08:13;153219.69;;;11.39;83.66
51287;BME280;37364;46.974;18.916;2023-03-20T08:10:46;153302.63;;;11.72;82.38
51287;BME280;37364;46.974;18.916;2023-03-20T08:13:17;153237.78;;;11.46;81.36
51287;BME280;37364;46.974;18.916;2023-03-20T08:15:47;153281.84;;;11.64;81.69
51287;BME280;37364;46.974;18.916;2023-03-20T08:18:17;153322.00;;;11.80;81.64
51287;BME280;37364;46.974;18.916;2023-03-20T08:20:48;153296.09;;;11.70;80.88
51287;BME280;37364;46.974;18.916;2023-03-20T08:23:18;153297.38;;;11.70;80.56
51287;BME280;37364;46.974;18.916;2023-03-20T08:25:51;153292.22;;;11.68;79.89
51287;BME280;37364;46.974;18.916;2023-03-20T08:28:22;153312.97;;;11.76;80.78
51287;BME280;37364;46.974;18.916;2023-03-20T08:31:12;153350.56;;;11.91;78.73
51287;BME280;37364;46.974;18.916;2023-03-20T08:33:44;153285.75;;;11.65;78.58
51287;BME280;37364;46.974;18.916;2023-03-20T08:36:15;153328.53;;;11.82;78.83
51287;BME280;37364;46.974;18.916;2023-03-20T08:38:47;153341.44;;;11.87;77.72
51287;BME280;37364;46.974;18.916;2023-03-20T08:41:19;153371.31;;;11.99;76.98
51287;BME280;37364;46.974;18.916;2023-03-20T08:43:50;153428.34;;;12.22;79.88
51287;BME280;37364;46.974;18.916;2023-03-20T08:46:20;153590.44;;;12.86;77.34
51287;BME280;37364;46.974;18.916;2023-03-20T08:48:50;153529.47;;;12.62;80.46
51287;BME280;37364;46.974;18.916;2023-03-20T08:51:20;153608.56;;;12.93;77.18
51287;BME280;37364;46.974;18.916;2023-03-20T08:53:50;153630.63;;;13.02;76.35
51287;BME280;37364;46.974;18.916;2023-03-20T08:56:23;153621.53;;;12.98;72.53
51287;BME280;37364;46.974;18.916;2023-03-20T08:58:53;153507.44;;;12.53;71.81
51287;BME280;37364;46.974;18.916;2023-03-20T09:01:23;153593.00;;;12.87;72.54
51287;BME280;37364;46.974;18.916;2023-03-20T09:04:13;153674.72;;;13.19;71.92
51287;BME280;37364;46.974;18.916;2023-03-20T09:06:44;153700.72;;;13.30;73.42
51287;BME280;37364;46.974;18.916;2023-03-20T09:09:14;153783.75;;;13.62;73.46
51287;BME280;37364;46.974;18.916;2023-03-20T09:11:48;153657.84;;;13.13;70.94
51287;BME280;37364;46.974;18.916;2023-03-20T09:14:18;153766.84;;;13.56;72.10
51287;BME280;37364;46.974;18.916;2023-03-20T09:16:49;153757.78;;;13.52;70.22
51287;BME280;37364;46.974;18.916;2023-03-20T09:19:19;153822.63;;;13.78;72.90
51287;BME280;37364;46.974;18.916;2023-03-20T09:21:49;153715.00;;;13.35;71.17
51287;BME280;37364;46.974;18.916;2023-03-20T09:24:19;153783.75;;;13.62;71.04
51287;BME280;37364;46.974;18.916;2023-03-20T09:26:52;153707.19;;;13.32;72.63
51287;BME280;37364;46.974;18.916;2023-03-20T09:29:22;153755.19;;;13.51;69.55
51287;BME280;37364;46.974;18.916;2023-03-20T09:31:52;153821.34;;;13.77;68.98
51287;BME280;37364;46.974;18.916;2023-03-20T09:34:22;153782.41;;;13.62;70.05
51287;BME280;37364;46.974;18.916;2023-03-20T09:36:53;153796.69;;;13.68;69.03
51287;BME280;37364;46.974;18.916;2023-03-20T09:39:23;153799.31;;;13.69;67.17
51287;BME280;37364;46.974;18.916;2023-03-20T09:42:03;153813.59;;;13.74;67.82
51287;BME280;37364;46.974;18.916;2023-03-20T09:44:45;153844.72;;;13.87;67.39
51287;BME280;37364;46.974;18.916;2023-03-20T09:47:26;153925.19;;;14.18;66.83
51287;BME280;37364;46.974;18.916;2023-03-20T09:52:58;153939.47;;;14.24;64.49
51287;BME280;37364;46.974;18.916;2023-03-20T09:55:35;153926.47;;;14.19;64.76
51287;BME280;37364;46.974;18.916;2023-03-20T09:58:14;154001.78;;;14.49;63.42
51287;BME280;37364;46.974;18.916;2023-03-20T10:00:46;154052.47;;;14.69;62.32
51287;BME280;37364;46.974;18.916;2023-03-20T10:03:19;154108.28;;;14.91;63.24
51287;BME280;37364;46.974;18.916;2023-03-20T10:05:55;154097.91;;;14.87;63.67
51287;BME280;37364;46.974;18.916;2023-03-20T10:08:29;154081.03;;;14.80;62.04
51287;BME280;37364;46.974;18.916;2023-03-20T10:11:14;154156.34;;;15.10;61.32
51287;BME280;37364;46.974;18.916;2023-03-20T10:14:01;154264.13;;;15.52;59.55
51287;BME280;37364;46.974;18.916;2023-03-20T10:16:44;154242.06;;;15.43;60.04
51287;BME280;37364;46.974;18.916;2023-03-20T10:19:22;154266.75;;;15.53;60.55
51287;BME280;37364;46.974;18.916;2023-03-20T10:21:58;154273.22;;;15.56;60.11
51287;BME280;37364;46.974;18.916;2023-03-20T10:24:33;154331.75;;;15.79;59.96
51287;BME280;37364;46.974;18.916;2023-03-20T10:27:12;154340.88;;;15.82;57.44
51287;BME280;37364;46.974;18.916;2023-03-20T10:29:51;154365.56;;;15.92;55.04
51287;BME280;37364;46.974;18.916;2023-03-20T10:32:27;154392.81;;;16.03;55.00
51287;BME280;37364;46.974;18.916;2023-03-20T10:35:10;154275.84;;;15.57;55.68
51287;BME280;37364;46.974;18.916;2023-03-20T10:37:49;154301.81;;;15.67;55.81
51287;BME280;37364;46.974;18.916;2023-03-20T10:40:26;154290.16;;;15.62;54.92
51287;BME280;37364;46.974;18.916;2023-03-20T10:43:00;154400.63;;;16.06;54.92
51287;BME280;37364;46.974;18.916;2023-03-20T10:45:38;154416.22;;;16.12;56.69
51287;BME280;37364;46.974;18.916;2023-03-20T10:48:16;154492.94;;;16.43;54.40
51287;BME280;37364;46.974;18.916;2023-03-20T10:50:54;154431.81;;;16.18;54.41
51287;BME280;37364;46.974;18.916;2023-03-20T10:53:34;154483.81;;;16.39;54.68
51287;BME280;37364;46.974;18.916;2023-03-20T10:56:07;154548.81;;;16.65;56.12
51287;BME280;37364;46.974;18.916;2023-03-20T10:58:45;154568.31;;;16.72;55.88
51287;BME280;37364;46.974;18.916;2023-03-20T11:01:18;154533.22;;;16.58;55.38
51287;BME280;37364;46.974;18.916;2023-03-20T11:03:49;154442.19;;;16.23;54.02
51287;BME280;37364;46.974;18.916;2023-03-20T11:06:22;154502.00;;;16.46;54.82
51287;BME280;37364;46.974;18.916;2023-03-20T11:08:54;154474.72;;;16.35;55.84
51287;BME280;37364;46.974;18.916;2023-03-20T11:11:26;154580.00;;;16.77;54.25
51287;BME280;37364;46.974;18.916;2023-03-20T11:14:08;154581.31;;;16.77;54.94
51287;BME280;37364;46.974;18.916;2023-03-20T11:16:41;154581.31;;;16.77;53.50
51287;BME280;37364;46.974;18.916;2023-03-20T11:19:11;154578.72;;;16.76;54.07
51287;BME280;37364;46.974;18.916;2023-03-20T11:21:48;154623.00;;;16.94;53.37
51287;BME280;37364;46.974;18.916;2023-03-20T11:24:23;154535.81;;;16.59;53.12
51287;BME280;37364;46.974;18.916;2023-03-20T11:27:04;154593.09;;;16.82;54.08
51287;BME280;37364;46.974;18.916;2023-03-20T11:29:35;154594.38;;;16.83;53.10
51287;BME280;37364;46.974;18.916;2023-03-20T11:32:18;154581.31;;;16.77;54.53
51287;BME280;37364;46.974;18.916;2023-03-20T11:34:52;154525.41;;;16.55;53.36
51287;BME280;37364;46.974;18.916;2023-03-20T11:37:25;154525.41;;;16.55;52.58
51287;BME280;37364;46.974;18.916;2023-03-20T11:39:59;154590.41;;;16.81;53.37
51287;BME280;37364;46.974;18.916;2023-03-20T11:42:34;154654.19;;;17.06;52.89
51287;BME280;37364;46.974;18.916;2023-03-20T11:45:12;154591.75;;;16.82;51.73
51287;BME280;37364;46.974;18.916;2023-03-20T11:47:50;154685.38;;;17.18;52.44
51287;BME280;37364;46.974;18.916;2023-03-20T11:50:29;154608.69;;;16.88;51.55
51287;BME280;37364;46.974;18.916;2023-03-20T11:53:01;154668.50;;;17.12;52.68
51287;BME280;37364;46.974;18.916;2023-03-20T11:55:32;154737.44;;;17.39;52.82
51287;BME280;37364;46.974;18.916;2023-03-20T11:58:04;154712.72;;;17.29;51.79
51287;BME280;37364;46.974;18.916;2023-03-20T12:00:37;154689.28;;;17.20;50.46
51287;BME280;37364;46.974;18.916;2023-03-20T12:06:19;154684.09;;;17.18;49.60
51287;BME280;37364;46.974;18.916;2023-03-20T12:08:52;154686.72;;;17.19;49.12
51287;BME280;37364;46.974;18.916;2023-03-20T12:11:37;154677.59;;;17.15;49.09
51287;BME280;37364;46.974;18.916;2023-03-20T12:14:16;154711.38;;;17.29;50.65
51287;BME280;37364;46.974;18.916;2023-03-20T12:16:54;154678.88;;;17.16;48.56
51287;BME280;37364;46.974;18.916;2023-03-20T12:19:28;154624.28;;;16.94;48.66
51287;BME280;37364;46.974;18.916;2023-03-20T12:22:08;154733.50;;;17.37;49.60
51287;BME280;37364;46.974;18.916;2023-03-20T12:24:48;154719.19;;;17.32;49.15
51287;BME280;37364;46.974;18.916;2023-03-20T12:27:26;154623.00;;;16.94;47.61
51287;BME280;37364;46.974;18.916;2023-03-20T12:30:03;154606.06;;;16.87;49.25
51287;BME280;37364;46.974;18.916;2023-03-20T12:32:42;154727.03;;;17.35;49.59
51287;BME280;37364;46.974;18.916;2023-03-20T12:35:17;154646.34;;;17.03;49.45
51287;BME280;37364;46.974;18.916;2023-03-20T12:37:52;154658.09;;;17.08;50.22
51287;BME280;37364;46.974;18.916;2023-03-20T12:40:30;154577.44;;;16.76;50.96
51287;BME280;37364;46.974;18.916;2023-03-20T12:43:08;154716.63;;;17.31;50.80
51287;BME280;37364;46.974;18.916;2023-03-20T12:45:50;154669.78;;;17.12;49.47
51287;BME280;37364;46.974;18.916;2023-03-20T12:48:43;154603.47;;;16.86;49.98
51287;BME280;37364;46.974;18.916;2023-03-20T12:51:22;154520.22;;;16.53;49.98
51287;BME280;37364;46.974;18.916;2023-03-20T12:54:13;154637.28;;;16.99;50.18
51287;BME280;37364;46.974;18.916;2023-03-20T12:57:01;154569.63;;;16.73;50.06
51287;BME280;37364;46.974;18.916;2023-03-20T12:59:44;154535.81;;;16.59;50.14
51287;BME280;37364;46.974;18.916;2023-03-20T13:02:26;154517.59;;;16.52;51.18
51287;BME280;37364;46.974;18.916;2023-03-20T13:05:11;154576.09;;;16.75;50.66
51287;BME280;37364;46.974;18.916;2023-03-20T13:07:57;154582.63;;;16.78;51.38
51287;BME280;37364;46.974;18.916;2023-03-20T13:10:36;154596.94;;;16.84;52.25
51287;BME280;37364;46.974;18.916;2023-03-20T13:13:24;154626.84;;;16.95;51.85
51287;BME280;37364;46.974;18.916;2023-03-20T13:16:06;154572.19;;;16.74;51.96
51287;BME280;37364;46.974;18.916;2023-03-20T13:18:48;154598.28;;;16.84;52.42
51287;BME280;37364;46.974;18.916;2023-03-20T13:21:26;154529.31;;;16.57;51.29
51287;BME280;37364;46.974;18.916;2023-03-20T13:24:08;154541.00;;;16.61;51.50
51287;BME280;37364;46.974;18.916;2023-03-20T13:26:50;154557.94;;;16.68;51.17
51287;BME280;37364;46.974;18.916;2023-03-20T13:29:26;154595.66;;;16.83;51.49
51287;BME280;37364;46.974;18.916;2023-03-20T13:32:12;154573.53;;;16.74;52.19
51287;BME280;37364;46.974;18.916;2023-03-20T13:35:18;154570.91;;;16.73;50.98
51287;BME280;37364;46.974;18.916;2023-03-20T13:37:57;154551.41;;;16.66;49.99
51287;BME280;37364;46.974;18.916;2023-03-20T13:40:36;154576.09;;;16.75;50.66
51287;BME280;37364;46.974;18.916;2023-03-20T13:43:29;154547.53;;;16.64;50.00